»·PEaware :: AAL891 KRNO-KSBA

AAL891 :: KRNO-KSBA

FLIGHT INFORMATION

Flight Status: Arrived
Operator:
American Airlines
More flights by this operator :: More flights under this callsign
Pilot: Ben Leiby (6391)
Aircraft: BOEING 757-200
(B752)
More flights by this aircraft type
Origin: KRNO Reno/Tahoe Intl
United States
Destination: KSBA Santa Barbara Mun
United States
More flights between these airports :: More routes between these airports
Route: +ZEFFR6 DARBI GVO HABUT
File this flight plan on PilotEdge
Remarks:
Altitude:
(Current/Filed)
33,000ft
Speed:
(Current/Filed)
450kts
Departed: 05-Jun-17 11:35 AM
Arrived: 05-Jun-17 12:36 PM
Distance/Time
Traveled:
304nm/1:01
Distance/Time
To Go:
Arrived

Flight Plot

Page will automatically refresh every two minutes.


Map Options




Map Legend


Flown Route
Filed Route
Departure Airport
Arrival Airport
Navaid (VOR, NDB)
Fix

Horizontal Profiles

Position Reports

Time Latitude Longitude Heading Altitude Ground
Speed
05-Jun-17 11:11 39.505270 -119.773159 184 4420ft 0kts
05-Jun-17 11:12 39.505270 -119.773159 184 4420ft 0kts
05-Jun-17 11:13 39.505270 -119.773159 184 4420ft 0kts
05-Jun-17 11:14 39.505270 -119.773159 184 4420ft 0kts
05-Jun-17 11:15 39.505270 -119.773159 184 4420ft 0kts
05-Jun-17 11:16 39.505270 -119.773159 184 4420ft 0kts
05-Jun-17 11:17 39.505270 -119.773159 184 4420ft 0kts
05-Jun-17 11:18 39.505270 -119.773159 184 4420ft 0kts
05-Jun-17 11:19 39.505270 -119.773159 184 4420ft 0kts
05-Jun-17 11:20 39.505270 -119.773159 184 4420ft 0kts
05-Jun-17 11:21 39.505270 -119.773159 184 4420ft 0kts
05-Jun-17 11:22 39.505270 -119.773159 184 4420ft 0kts
05-Jun-17 11:23 39.505270 -119.773159 184 4420ft 0kts
05-Jun-17 11:24 39.505270 -119.773159 184 4420ft 0kts
05-Jun-17 11:25 39.505270 -119.773159 184 4420ft 0kts
05-Jun-17 11:26 39.505339 -119.773153 184 4420ft 2kts
05-Jun-17 11:27 39.505876 -119.773391 129 4420ft 2kts
05-Jun-17 11:28 39.505906 -119.773442 123 4420ft 0kts
05-Jun-17 11:29 39.505906 -119.773442 123 4420ft 0kts
05-Jun-17 11:30 39.505905 -119.773438 123 4420ft 0kts
05-Jun-17 11:31 39.505762 -119.772806 79 4420ft 0kts
05-Jun-17 11:32 39.505878 -119.772196 77 4420ft 4kts
05-Jun-17 11:33 39.508360 -119.771494 359 4420ft 33kts
05-Jun-17 11:34 39.513722 -119.770638 85 4420ft 0kts
05-Jun-17 11:35 39.513731 -119.770398 87 4420ft 7kts
05-Jun-17 11:36 39.512628 -119.769206 178 4420ft 32kts
05-Jun-17 11:37 39.475891 -119.769343 178 5663ft 170kts
05-Jun-17 11:38 39.425584 -119.774333 187 7751ft 196kts
05-Jun-17 11:39 39.370808 -119.771904 178 9443ft 210kts
05-Jun-17 11:40 39.303984 -119.770822 177 10558ft 288kts
05-Jun-17 11:41 39.213072 -119.767235 178 12307ft 364kts
05-Jun-17 11:42 39.112282 -119.763305 179 15400ft 375kts
05-Jun-17 11:43 39.013660 -119.758797 179 18263ft 378kts
05-Jun-17 11:44 38.913451 -119.754477 179 20960ft 388kts
05-Jun-17 11:45 38.830915 -119.750389 179 22911ft 396kts
05-Jun-17 11:46 38.757884 -119.746466 179 24433ft 404kts
05-Jun-17 11:47 38.666409 -119.741234 179 26074ft 415kts
05-Jun-17 11:48 38.550642 -119.734139 179 27887ft 428kts
05-Jun-17 11:49 38.431920 -119.726419 179 29581ft 439kts
05-Jun-17 11:50 38.309714 -119.717931 179 31161ft 449kts
05-Jun-17 11:51 38.185920 -119.708305 179 32268ft 449kts
05-Jun-17 11:52 38.063339 -119.698096 179 32274ft 447kts
05-Jun-17 11:53 37.940457 -119.689264 186 32273ft 444kts
05-Jun-17 11:54 37.840157 -119.707416 189 32278ft 443kts
05-Jun-17 11:55 37.737861 -119.721643 188 32280ft 446kts
05-Jun-17 11:56 37.640748 -119.733687 188 32277ft 449kts
05-Jun-17 11:57 37.523960 -119.747749 188 32301ft 450kts
05-Jun-17 11:58 37.401762 -119.762337 188 32305ft 451kts
05-Jun-17 11:59 37.280865 -119.776705 188 32183ft 449kts
05-Jun-17 12:00 37.159666 -119.796139 189 32063ft 449kts
05-Jun-17 12:01 37.039470 -119.812150 188 32057ft 450kts
05-Jun-17 12:02 36.918656 -119.826693 188 32057ft 450kts
05-Jun-17 12:03 36.818140 -119.838551 188 32061ft 450kts
05-Jun-17 12:04 36.722139 -119.849809 188 32058ft 450kts
05-Jun-17 12:05 36.609463 -119.861983 187 32033ft 450kts
05-Jun-17 12:06 36.490013 -119.874433 188 32032ft 450kts
05-Jun-17 12:07 36.373733 -119.887688 188 32031ft 450kts
05-Jun-17 12:08 36.254705 -119.901432 188 32031ft 450kts
05-Jun-17 12:09 36.133655 -119.915404 188 32030ft 450kts
05-Jun-17 12:10 36.013094 -119.929283 188 32030ft 450kts
05-Jun-17 12:11 35.899085 -119.942370 188 32029ft 450kts
05-Jun-17 12:12 35.821928 -119.951205 188 32033ft 450kts
05-Jun-17 12:13 35.722065 -119.962607 188 31361ft 446kts
05-Jun-17 12:14 35.603323 -119.976148 187 28606ft 445kts
05-Jun-17 12:15 35.486016 -119.989863 188 26425ft 429kts
05-Jun-17 12:16 35.370663 -120.004935 187 24246ft 415kts
05-Jun-17 12:17 35.258496 -120.017890 187 23640ft 415kts
05-Jun-17 12:18 35.145958 -120.030604 186 21251ft 406kts
05-Jun-17 12:19 35.054868 -120.040839 186 19415ft 396kts
05-Jun-17 12:20 34.929828 -120.054840 186 16822ft 385kts
05-Jun-17 12:21 34.863911 -120.062205 187 15442ft 380kts
05-Jun-17 12:22 34.751294 -120.074764 187 13227ft 366kts
05-Jun-17 12:23 34.671569 -120.083398 183 11930ft 336kts
05-Jun-17 12:24 34.586223 -120.087095 186 10462ft 312kts
05-Jun-17 12:25 34.491732 -120.085981 172 8670ft 284kts
05-Jun-17 12:26 34.429024 -120.073547 172 7399ft 269kts
05-Jun-17 12:27 34.359240 -120.052388 137 5900ft 263kts
05-Jun-17 12:28 34.351186 -119.970219 82 5078ft 255kts
05-Jun-17 12:29 34.359748 -119.883392 82 5063ft 245kts
05-Jun-17 12:30 34.366418 -119.816097 81 4444ft 239kts
05-Jun-17 12:31 34.374230 -119.737653 82 3569ft 236kts
05-Jun-17 12:32 34.385665 -119.661808 49 2574ft 221kts
05-Jun-17 12:33 34.422233 -119.669199 268 4514ft 149kts
05-Jun-17 12:34 34.424940 -119.719454 279 3936ft 134kts
05-Jun-17 12:35 34.429354 -119.767636 267 1930ft 151kts
05-Jun-17 12:36 34.428398 -119.815382 265 388ft 133kts
05-Jun-17 12:37 34.427538 -119.850321 273 23ft 44kts
05-Jun-17 12:38 34.426509 -119.847652 88 23ft 17kts
05-Jun-17 12:39 34.426357 -119.838222 139 23ft 14kts
05-Jun-17 12:40 34.425766 -119.837382 100 23ft 0kts
05-Jun-17 12:41 34.425766 -119.837382 100 23ft 0kts

Navigation Log

Ident Type
1. KRNO Airport
2. ZEFFR Fix
3. ZEFFR Fix
4. EPOSE Fix
5. DARBI Fix
6. GVO Navaid
7. HABUT Fix
8. KSBA Airport